sensor_id;sensor_type;location;lat;lon;timestamp;temperature;humidity
13446;DHT22;6795;51.232;3.764;2023-12-28T11:18:18;10.80;99.90
13446;DHT22;6795;51.232;3.764;2023-12-28T13:03:22;12.10;99.90
13446;DHT22;6795;51.232;3.764;2023-12-28T13:05:55;12.60;99.90
13446;DHT22;6795;51.232;3.764;2023-12-28T13:08:24;12.50;99.90
13446;DHT22;6795;51.232;3.764;2023-12-28T13:10:52;12.60;99.90
13446;DHT22;6795;51.232;3.764;2023-12-28T13:13:21;12.60;99.90
13446;DHT22;6795;51.232;3.764;2023-12-28T13:15:49;12.60;99.90
13446;DHT22;6795;51.232;3.764;2023-12-28T13:18:19;12.60;99.90
13446;DHT22;6795;51.232;3.764;2023-12-28T13:20:47;12.60;99.90
13446;DHT22;6795;51.232;3.764;2023-12-28T13:23:16;12.60;99.90
13446;DHT22;6795;51.232;3.764;2023-12-28T13:25:44;12.60;99.90
13446;DHT22;6795;51.232;3.764;2023-12-28T13:28:12;12.60;99.90
13446;DHT22;6795;51.232;3.764;2023-12-28T13:30:41;12.70;99.90
13446;DHT22;6795;51.232;3.764;2023-12-28T13:33:10;12.60;99.90
13446;DHT22;6795;51.232;3.764;2023-12-28T13:35:40;12.50;99.90
13446;DHT22;6795;51.232;3.764;2023-12-28T13:38:09;12.40;99.90
13446;DHT22;6795;51.232;3.764;2023-12-28T13:40:37;12.40;99.90
13446;DHT22;6795;51.232;3.764;2023-12-28T13:43:06;12.30;99.90
13446;DHT22;6795;51.232;3.764;2023-12-28T13:45:34;12.30;99.90
13446;DHT22;6795;51.232;3.764;2023-12-28T13:48:03;12.20;99.90
13446;DHT22;6795;51.232;3.764;2023-12-28T13:50:31;12.20;99.90
13446;DHT22;6795;51.232;3.764;2023-12-28T13:53:01;12.20;99.90
13446;DHT22;6795;51.232;3.764;2023-12-28T13:55:31;12.10;99.90
13446;DHT22;6795;51.232;3.764;2023-12-28T13:58:00;12.10;99.90
13446;DHT22;6795;51.232;3.764;2023-12-28T14:00:30;12.10;99.90
13446;DHT22;6795;51.232;3.764;2023-12-28T14:02:58;12.00;99.90
13446;DHT22;6795;51.232;3.764;2023-12-28T14:05:27;12.00;99.90
13446;DHT22;6795;51.232;3.764;2023-12-28T14:08:02;11.90;99.90
13446;DHT22;6795;51.232;3.764;2023-12-28T14:10:32;12.00;99.90
13446;DHT22;6795;51.232;3.764;2023-12-28T14:13:00;12.00;99.90
13446;DHT22;6795;51.232;3.764;2023-12-28T14:15:29;12.00;99.90
13446;DHT22;6795;51.232;3.764;2023-12-28T14:17:57;12.00;99.90
13446;DHT22;6795;51.232;3.764;2023-12-28T14:20:26;12.00;99.90
13446;DHT22;6795;51.232;3.764;2023-12-28T14:22:55;12.10;99.90
13446;DHT22;6795;51.232;3.764;2023-12-28T14:25:27;12.10;99.90
13446;DHT22;6795;51.232;3.764;2023-12-28T14:27:55;12.10;99.90
13446;DHT22;6795;51.232;3.764;2023-12-28T14:30:24;12.10;99.90
13446;DHT22;6795;51.232;3.764;2023-12-28T14:32:53;12.10;99.90
13446;DHT22;6795;51.232;3.764;2023-12-28T14:35:22;12.20;99.90
13446;DHT22;6795;51.232;3.764;2023-12-28T14:37:52;12.20;99.90
13446;DHT22;6795;51.232;3.764;2023-12-28T14:40:20;12.20;99.90
13446;DHT22;6795;51.232;3.764;2023-12-28T14:42:50;12.10;99.90
13446;DHT22;6795;51.232;3.764;2023-12-28T14:45:18;12.10;99.90
13446;DHT22;6795;51.232;3.764;2023-12-28T14:47:46;12.10;99.90
13446;DHT22;6795;51.232;3.764;2023-12-28T14:50:15;12.10;99.90
13446;DHT22;6795;51.232;3.764;2023-12-28T14:52:44;12.00;99.90
13446;DHT22;6795;51.232;3.764;2023-12-28T14:55:13;11.90;99.90
13446;DHT22;6795;51.232;3.764;2023-12-28T14:57:41;11.90;99.90
13446;DHT22;6795;51.232;3.764;2023-12-28T15:00:13;11.80;99.90
13446;DHT22;6795;51.232;3.764;2023-12-28T15:02:42;11.80;99.90
13446;DHT22;6795;51.232;3.764;2023-12-28T15:05:11;11.80;99.90
13446;DHT22;6795;51.232;3.764;2023-12-28T15:07:42;11.70;99.90
13446;DHT22;6795;51.232;3.764;2023-12-28T15:10:12;11.70;99.90
13446;DHT22;6795;51.232;3.764;2023-12-28T15:12:41;11.60;99.90
13446;DHT22;6795;51.232;3.764;2023-12-28T15:15:12;11.60;99.90
13446;DHT22;6795;51.232;3.764;2023-12-28T15:17:41;11.60;99.90
13446;DHT22;6795;51.232;3.764;2023-12-28T15:20:11;11.50;99.90
13446;DHT22;6795;51.232;3.764;2023-12-28T15:22:40;11.50;99.90
13446;DHT22;6795;51.232;3.764;2023-12-28T15:25:09;11.40;99.90
13446;DHT22;6795;51.232;3.764;2023-12-28T15:27:38;11.40;99.90
13446;DHT22;6795;51.232;3.764;2023-12-28T15:30:07;11.40;99.90
13446;DHT22;6795;51.232;3.764;2023-12-28T15:32:38;11.30;99.90
13446;DHT22;6795;51.232;3.764;2023-12-28T15:35:11;11.30;99.90
13446;DHT22;6795;51.232;3.764;2023-12-28T15:37:41;11.20;99.90
13446;DHT22;6795;51.232;3.764;2023-12-28T15:40:10;11.20;99.90
13446;DHT22;6795;51.232;3.764;2023-12-28T15:42:38;11.20;99.90
13446;DHT22;6795;51.232;3.764;2023-12-28T15:45:07;11.20;99.90
13446;DHT22;6795;51.232;3.764;2023-12-28T15:47:37;11.20;99.90
13446;DHT22;6795;51.232;3.764;2023-12-28T15:50:06;11.10;99.90
13446;DHT22;6795;51.232;3.764;2023-12-28T15:52:35;11.10;99.90
13446;DHT22;6795;51.232;3.764;2023-12-28T15:55:04;11.10;99.90
13446;DHT22;6795;51.232;3.764;2023-12-28T15:57:33;11.10;99.90
13446;DHT22;6795;51.232;3.764;2023-12-28T16:00:01;11.10;99.90
13446;DHT22;6795;51.232;3.764;2023-12-28T16:02:34;11.10;99.90
13446;DHT22;6795;51.232;3.764;2023-12-28T16:05:04;11.10;99.90
13446;DHT22;6795;51.232;3.764;2023-12-28T16:07:33;11.10;99.90
13446;DHT22;6795;51.232;3.764;2023-12-28T16:10:01;11.10;99.90
13446;DHT22;6795;51.232;3.764;2023-12-28T16:12:30;11.10;99.90
13446;DHT22;6795;51.232;3.764;2023-12-28T16:14:59;11.10;99.90
13446;DHT22;6795;51.232;3.764;2023-12-28T16:17:28;11.10;99.90
13446;DHT22;6795;51.232;3.764;2023-12-28T16:19:57;11.20;99.90
13446;DHT22;6795;51.232;3.764;2023-12-28T16:22:28;11.20;99.90
13446;DHT22;6795;51.232;3.764;2023-12-28T16:24:56;11.30;99.90
13446;DHT22;6795;51.232;3.764;2023-12-28T16:27:27;11.30;99.90
13446;DHT22;6795;51.232;3.764;2023-12-28T16:29:56;11.40;99.90
13446;DHT22;6795;51.232;3.764;2023-12-28T16:32:24;11.40;99.90
13446;DHT22;6795;51.232;3.764;2023-12-28T16:34:53;11.50;99.90
13446;DHT22;6795;51.232;3.764;2023-12-28T16:37:21;11.50;99.90
13446;DHT22;6795;51.232;3.764;2023-12-28T16:39:51;11.50;99.90
13446;DHT22;6795;51.232;3.764;2023-12-28T16:42:19;11.50;99.90
13446;DHT22;6795;51.232;3.764;2023-12-28T16:44:48;11.50;99.90
13446;DHT22;6795;51.232;3.764;2023-12-28T16:47:16;11.50;99.90
13446;DHT22;6795;51.232;3.764;2023-12-28T16:49:44;11.60;99.90
13446;DHT22;6795;51.232;3.764;2023-12-28T16:52:13;11.50;99.90
13446;DHT22;6795;51.232;3.764;2023-12-28T16:54:42;11.60;99.90
13446;DHT22;6795;51.232;3.764;2023-12-28T16:57:12;11.60;99.90
13446;DHT22;6795;51.232;3.764;2023-12-28T16:59:40;11.60;99.90
13446;DHT22;6795;51.232;3.764;2023-12-28T17:02:13;11.60;99.90
13446;DHT22;6795;51.232;3.764;2023-12-28T17:04:42;11.60;99.90
13446;DHT22;6795;51.232;3.764;2023-12-28T17:07:10;11.60;99.90
13446;DHT22;6795;51.232;3.764;2023-12-28T17:09:39;11.50;99.90
13446;DHT22;6795;51.232;3.764;2023-12-28T17:12:18;11.40;99.90
13446;DHT22;6795;51.232;3.764;2023-12-28T17:14:50;11.30;99.90
13446;DHT22;6795;51.232;3.764;2023-12-28T17:17:19;11.30;99.90
13446;DHT22;6795;51.232;3.764;2023-12-28T17:19:48;11.40;99.90
13446;DHT22;6795;51.232;3.764;2023-12-28T17:22:19;11.50;99.90
13446;DHT22;6795;51.232;3.764;2023-12-28T17:24:54;11.50;99.90
13446;DHT22;6795;51.232;3.764;2023-12-28T17:27:28;11.50;99.90
13446;DHT22;6795;51.232;3.764;2023-12-28T17:30:00;11.50;99.90
13446;DHT22;6795;51.232;3.764;2023-12-28T17:32:31;11.50;99.90
13446;DHT22;6795;51.232;3.764;2023-12-28T17:35:01;11.50;99.90
13446;DHT22;6795;51.232;3.764;2023-12-28T17:37:34;11.50;99.90
13446;DHT22;6795;51.232;3.764;2023-12-28T17:40:04;11.50;99.90
13446;DHT22;6795;51.232;3.764;2023-12-28T17:42:38;11.50;99.90
13446;DHT22;6795;51.232;3.764;2023-12-28T17:45:08;11.60;99.90
13446;DHT22;6795;51.232;3.764;2023-12-28T17:47:44;11.50;99.90
13446;DHT22;6795;51.232;3.764;2023-12-28T17:50:19;11.50;99.90
13446;DHT22;6795;51.232;3.764;2023-12-28T17:52:50;11.40;99.90
13446;DHT22;6795;51.232;3.764;2023-12-28T17:55:19;11.50;99.90
13446;DHT22;6795;51.232;3.764;2023-12-28T17:57:48;11.50;99.90
13446;DHT22;6795;51.232;3.764;2023-12-28T18:00:19;11.50;99.90
13446;DHT22;6795;51.232;3.764;2023-12-28T18:02:47;11.50;99.90
13446;DHT22;6795;51.232;3.764;2023-12-28T18:05:15;11.40;99.90
13446;DHT22;6795;51.232;3.764;2023-12-28T18:07:44;11.40;99.90
13446;DHT22;6795;51.232;3.764;2023-12-28T18:10:12;11.40;99.90
13446;DHT22;6795;51.232;3.764;2023-12-28T18:12:41;11.30;99.90
13446;DHT22;6795;51.232;3.764;2023-12-28T18:15:11;11.30;99.90
13446;DHT22;6795;51.232;3.764;2023-12-28T18:17:40;11.30;99.90
13446;DHT22;6795;51.232;3.764;2023-12-28T18:20:08;11.30;99.90
13446;DHT22;6795;51.232;3.764;2023-12-28T18:22:39;11.20;99.90
13446;DHT22;6795;51.232;3.764;2023-12-28T18:25:07;11.30;99.90
13446;DHT22;6795;51.232;3.764;2023-12-28T18:27:36;11.20;99.90
13446;DHT22;6795;51.232;3.764;2023-12-28T18:30:05;11.20;99.90
13446;DHT22;6795;51.232;3.764;2023-12-28T18:32:35;11.20;99.90
13446;DHT22;6795;51.232;3.764;2023-12-28T18:35:05;11.20;99.90
13446;DHT22;6795;51.232;3.764;2023-12-28T18:37:34;11.20;99.90
13446;DHT22;6795;51.232;3.764;2023-12-28T18:40:04;11.20;99.90
13446;DHT22;6795;51.232;3.764;2023-12-28T18:42:33;11.20;99.90
13446;DHT22;6795;51.232;3.764;2023-12-28T18:45:04;11.20;99.90
13446;DHT22;6795;51.232;3.764;2023-12-28T18:47:34;11.20;99.90
13446;DHT22;6795;51.232;3.764;2023-12-28T18:50:03;11.20;99.90
13446;DHT22;6795;51.232;3.764;2023-12-28T18:52:31;11.10;99.90
13446;DHT22;6795;51.232;3.764;2023-12-28T18:55:00;11.20;99.90
13446;DHT22;6795;51.232;3.764;2023-12-28T18:57:31;11.20;99.90
13446;DHT22;6795;51.232;3.764;2023-12-28T19:00:00;11.20;99.90
13446;DHT22;6795;51.232;3.764;2023-12-28T19:02:28;11.20;99.90
13446;DHT22;6795;51.232;3.764;2023-12-28T19:04:58;11.20;99.90
13446;DHT22;6795;51.232;3.764;2023-12-28T19:07:26;11.10;99.90
13446;DHT22;6795;51.232;3.764;2023-12-28T19:09:55;11.20;99.90
13446;DHT22;6795;51.232;3.764;2023-12-28T19:12:24;11.10;99.90
13446;DHT22;6795;51.232;3.764;2023-12-28T19:14:52;11.10;99.90
13446;DHT22;6795;51.232;3.764;2023-12-28T19:17:22;11.10;99.90
13446;DHT22;6795;51.232;3.764;2023-12-28T19:19:51;11.20;99.90
13446;DHT22;6795;51.232;3.764;2023-12-28T19:22:21;11.20;99.90
13446;DHT22;6795;51.232;3.764;2023-12-28T19:24:49;11.20;99.90
13446;DHT22;6795;51.232;3.764;2023-12-28T19:27:18;11.20;99.90
13446;DHT22;6795;51.232;3.764;2023-12-28T19:29:46;11.20;99.90
13446;DHT22;6795;51.232;3.764;2023-12-28T19:32:14;11.20;99.90
13446;DHT22;6795;51.232;3.764;2023-12-28T19:34:43;11.20;99.90
13446;DHT22;6795;51.232;3.764;2023-12-28T19:37:12;11.20;99.90
13446;DHT22;6795;51.232;3.764;2023-12-28T19:39:41;11.20;99.90
13446;DHT22;6795;51.232;3.764;2023-12-28T19:42:11;11.30;99.90
13446;DHT22;6795;51.232;3.764;2023-12-28T19:44:39;11.20;99.90
13446;DHT22;6795;51.232;3.764;2023-12-28T19:47:08;11.30;99.90
13446;DHT22;6795;51.232;3.764;2023-12-28T19:49:37;11.30;99.90
13446;DHT22;6795;51.232;3.764;2023-12-28T19:52:06;11.30;99.90
13446;DHT22;6795;51.232;3.764;2023-12-28T19:54:34;11.30;99.90
13446;DHT22;6795;51.232;3.764;2023-12-28T19:57:04;11.40;99.90
13446;DHT22;6795;51.232;3.764;2023-12-28T19:59:33;11.30;99.90
13446;DHT22;6795;51.232;3.764;2023-12-28T20:02:01;11.30;99.90
13446;DHT22;6795;51.232;3.764;2023-12-28T20:04:30;11.30;99.90
13446;DHT22;6795;51.232;3.764;2023-12-28T20:06:58;11.30;99.90
13446;DHT22;6795;51.232;3.764;2023-12-28T20:09:29;11.30;99.90
13446;DHT22;6795;51.232;3.764;2023-12-28T20:11:57;11.30;99.90
13446;DHT22;6795;51.232;3.764;2023-12-28T20:14:27;11.30;99.90
13446;DHT22;6795;51.232;3.764;2023-12-28T20:16:55;11.30;99.90
13446;DHT22;6795;51.232;3.764;2023-12-28T20:19:24;11.30;99.90
13446;DHT22;6795;51.232;3.764;2023-12-28T20:21:53;11.20;99.90
13446;DHT22;6795;51.232;3.764;2023-12-28T20:24:21;11.20;99.90
13446;DHT22;6795;51.232;3.764;2023-12-28T20:26:50;11.20;99.90
13446;DHT22;6795;51.232;3.764;2023-12-28T20:29:18;11.20;99.90
13446;DHT22;6795;51.232;3.764;2023-12-28T20:31:48;11.20;99.90
13446;DHT22;6795;51.232;3.764;2023-12-28T20:34:16;11.20;99.90
13446;DHT22;6795;51.232;3.764;2023-12-28T20:36:47;11.20;99.90
13446;DHT22;6795;51.232;3.764;2023-12-28T20:41:44;11.30;99.90
13446;DHT22;6795;51.232;3.764;2023-12-28T20:46:44;11.30;99.90
13446;DHT22;6795;51.232;3.764;2023-12-28T20:49:13;11.30;99.90
13446;DHT22;6795;51.232;3.764;2023-12-28T20:51:43;11.30;99.90
13446;DHT22;6795;51.232;3.764;2023-12-28T20:54:11;11.30;99.90
13446;DHT22;6795;51.232;3.764;2023-12-28T20:56:40;11.30;99.90
13446;DHT22;6795;51.232;3.764;2023-12-28T20:59:08;11.40;99.90
13446;DHT22;6795;51.232;3.764;2023-12-28T21:01:37;11.40;99.90
13446;DHT22;6795;51.232;3.764;2023-12-28T21:04:05;11.40;99.90
13446;DHT22;6795;51.232;3.764;2023-12-28T21:06:41;11.40;99.90
13446;DHT22;6795;51.232;3.764;2023-12-28T21:09:09;11.40;99.90
13446;DHT22;6795;51.232;3.764;2023-12-28T21:11:38;11.40;99.90
13446;DHT22;6795;51.232;3.764;2023-12-28T21:14:06;11.40;99.90
13446;DHT22;6795;51.232;3.764;2023-12-28T21:16:40;11.40;99.90
13446;DHT22;6795;51.232;3.764;2023-12-28T21:19:09;11.30;99.90
13446;DHT22;6795;51.232;3.764;2023-12-28T21:21:37;11.40;99.90
13446;DHT22;6795;51.232;3.764;2023-12-28T21:24:07;11.40;99.90
13446;DHT22;6795;51.232;3.764;2023-12-28T21:26:35;11.40;99.90
13446;DHT22;6795;51.232;3.764;2023-12-28T21:29:04;11.40;99.90
13446;DHT22;6795;51.232;3.764;2023-12-28T21:31:32;11.40;99.90
13446;DHT22;6795;51.232;3.764;2023-12-28T21:34:01;11.40;99.90
13446;DHT22;6795;51.232;3.764;2023-12-28T21:36:30;11.40;99.90
13446;DHT22;6795;51.232;3.764;2023-12-28T21:39:00;11.40;99.90
13446;DHT22;6795;51.232;3.764;2023-12-28T21:41:31;11.40;99.90
13446;DHT22;6795;51.232;3.764;2023-12-28T21:43:59;11.40;99.90
13446;DHT22;6795;51.232;3.764;2023-12-28T21:46:27;11.30;99.90
13446;DHT22;6795;51.232;3.764;2023-12-28T21:48:56;11.30;99.90
13446;DHT22;6795;51.232;3.764;2023-12-28T21:51:24;11.30;99.90
13446;DHT22;6795;51.232;3.764;2023-12-28T21:53:53;11.30;99.90
13446;DHT22;6795;51.232;3.764;2023-12-28T21:56:21;11.40;99.90
13446;DHT22;6795;51.232;3.764;2023-12-28T21:58:51;11.30;99.90
13446;DHT22;6795;51.232;3.764;2023-12-28T22:01:20;11.30;99.90
13446;DHT22;6795;51.232;3.764;2023-12-28T22:03:48;11.30;99.90
13446;DHT22;6795;51.232;3.764;2023-12-28T22:06:16;11.30;99.90
13446;DHT22;6795;51.232;3.764;2023-12-28T22:08:45;11.30;99.90
13446;DHT22;6795;51.232;3.764;2023-12-28T22:11:14;11.30;99.90
13446;DHT22;6795;51.232;3.764;2023-12-28T22:13:42;11.30;99.90
13446;DHT22;6795;51.232;3.764;2023-12-28T22:16:12;11.30;99.90
13446;DHT22;6795;51.232;3.764;2023-12-28T22:18:40;11.30;99.90
13446;DHT22;6795;51.232;3.764;2023-12-28T22:21:09;11.30;99.90
13446;DHT22;6795;51.232;3.764;2023-12-28T22:23:38;11.30;99.90
13446;DHT22;6795;51.232;3.764;2023-12-28T22:26:06;11.30;99.90
13446;DHT22;6795;51.232;3.764;2023-12-28T22:28:34;11.30;99.90
13446;DHT22;6795;51.232;3.764;2023-12-28T22:31:03;11.30;99.90
13446;DHT22;6795;51.232;3.764;2023-12-28T22:33:33;11.30;99.90
13446;DHT22;6795;51.232;3.764;2023-12-28T22:36:01;11.40;99.90
13446;DHT22;6795;51.232;3.764;2023-12-28T22:38:30;11.30;99.90
13446;DHT22;6795;51.232;3.764;2023-12-28T22:40:59;11.40;99.90
13446;DHT22;6795;51.232;3.764;2023-12-28T22:43:27;11.30;99.90
13446;DHT22;6795;51.232;3.764;2023-12-28T22:45:55;11.30;99.90
13446;DHT22;6795;51.232;3.764;2023-12-28T22:48:24;11.30;99.90
13446;DHT22;6795;51.232;3.764;2023-12-28T22:50:54;11.30;99.90
13446;DHT22;6795;51.232;3.764;2023-12-28T22:53:22;11.30;99.90
13446;DHT22;6795;51.232;3.764;2023-12-28T22:55:51;11.30;99.90
13446;DHT22;6795;51.232;3.764;2023-12-28T22:58:19;11.20;99.90
13446;DHT22;6795;51.232;3.764;2023-12-28T23:00:47;11.20;99.90
13446;DHT22;6795;51.232;3.764;2023-12-28T23:03:16;11.20;99.90
13446;DHT22;6795;51.232;3.764;2023-12-28T23:05:44;11.20;99.90
13446;DHT22;6795;51.232;3.764;2023-12-28T23:08:14;11.20;99.90
13446;DHT22;6795;51.232;3.764;2023-12-28T23:10:43;11.20;99.90
13446;DHT22;6795;51.232;3.764;2023-12-28T23:13:11;11.20;99.90
13446;DHT22;6795;51.232;3.764;2023-12-28T23:15:40;11.20;99.90
13446;DHT22;6795;51.232;3.764;2023-12-28T23:18:08;11.20;99.90
13446;DHT22;6795;51.232;3.764;2023-12-28T23:20:38;11.20;99.90
13446;DHT22;6795;51.232;3.764;2023-12-28T23:23:06;11.20;99.90
13446;DHT22;6795;51.232;3.764;2023-12-28T23:25:36;11.20;99.90
13446;DHT22;6795;51.232;3.764;2023-12-28T23:28:05;11.20;99.90
13446;DHT22;6795;51.232;3.764;2023-12-28T23:30:35;11.20;99.90
13446;DHT22;6795;51.232;3.764;2023-12-28T23:33:06;11.30;99.90
13446;DHT22;6795;51.232;3.764;2023-12-28T23:35:34;11.30;99.90
13446;DHT22;6795;51.232;3.764;2023-12-28T23:38:03;11.20;99.90
13446;DHT22;6795;51.232;3.764;2023-12-28T23:40:30;11.20;99.90
13446;DHT22;6795;51.232;3.764;2023-12-28T23:43:00;11.20;99.90
13446;DHT22;6795;51.232;3.764;2023-12-28T23:45:29;11.10;99.90
13446;DHT22;6795;51.232;3.764;2023-12-28T23:47:58;10.90;99.90
13446;DHT22;6795;51.232;3.764;2023-12-28T23:50:27;10.80;99.90
13446;DHT22;6795;51.232;3.764;2023-12-28T23:52:55;10.70;99.90
13446;DHT22;6795;51.232;3.764;2023-12-28T23:55:23;10.60;99.90
